sensor_id;sensor_type;location;lat;lon;timestamp;P1;durP1;ratioP1;P2;durP2;ratioP2
45388;SDS011;31127;52.078;4.370;2023-08-06T00:01:37;14.15;;;10.18;;
45388;SDS011;31127;52.078;4.370;2023-08-06T00:06:32;11.93;;;10.57;;
45388;SDS011;31127;52.078;4.370;2023-08-06T00:11:27;12.75;;;10.07;;
45388;SDS011;31127;52.078;4.370;2023-08-06T00:16:23;10.65;;;9.18;;
45388;SDS011;31127;52.078;4.370;2023-08-06T00:21:18;12.30;;;10.30;;
45388;SDS011;31127;52.078;4.370;2023-08-06T00:26:14;12.77;;;9.93;;
45388;SDS011;31127;52.078;4.370;2023-08-06T00:31:09;10.40;;;8.98;;
45388;SDS011;31127;52.078;4.370;2023-08-06T00:36:05;9.57;;;8.57;;
45388;SDS011;31127;52.078;4.370;2023-08-06T00:41:00;13.20;;;11.17;;
45388;SDS011;31127;52.078;4.370;2023-08-06T00:46:15;11.45;;;9.80;;
45388;SDS011;31127;52.078;4.370;2023-08-06T00:51:11;13.30;;;10.82;;
45388;SDS011;31127;52.078;4.370;2023-08-06T00:56:07;13.75;;;9.90;;
45388;SDS011;31127;52.078;4.370;2023-08-06T01:01:04;14.35;;;10.50;;
45388;SDS011;31127;52.078;4.370;2023-08-06T01:06:00;12.90;;;10.05;;
45388;SDS011;31127;52.078;4.370;2023-08-06T01:16:10;13.90;;;10.15;;
45388;SDS011;31127;52.078;4.370;2023-08-06T01:21:06;10.35;;;8.80;;
45388;SDS011;31127;52.078;4.370;2023-08-06T01:31:50;10.18;;;8.20;;
45388;SDS011;31127;52.078;4.370;2023-08-06T01:36:46;8.15;;;6.60;;
45388;SDS011;31127;52.078;4.370;2023-08-06T01:41:42;9.52;;;7.70;;
45388;SDS011;31127;52.078;4.370;2023-08-06T01:46:38;6.72;;;5.85;;
45388;SDS011;31127;52.078;4.370;2023-08-06T01:51:36;7.72;;;5.90;;
45388;SDS011;31127;52.078;4.370;2023-08-06T01:56:32;8.30;;;6.75;;
45388;SDS011;31127;52.078;4.370;2023-08-06T02:01:31;11.70;;;7.18;;
45388;SDS011;31127;52.078;4.370;2023-08-06T02:06:29;6.95;;;5.65;;
45388;SDS011;31127;52.078;4.370;2023-08-06T02:11:45;7.25;;;4.53;;
45388;SDS011;31127;52.078;4.370;2023-08-06T02:16:41;3.28;;;2.25;;
45388;SDS011;31127;52.078;4.370;2023-08-06T02:21:57;4.63;;;2.30;;
45388;SDS011;31127;52.078;4.370;2023-08-06T02:27:03;3.47;;;2.30;;
45388;SDS011;31127;52.078;4.370;2023-08-06T02:31:58;5.28;;;2.08;;
45388;SDS011;31127;52.078;4.370;2023-08-06T02:36:59;4.20;;;2.17;;
45388;SDS011;31127;52.078;4.370;2023-08-06T02:41:55;4.65;;;2.30;;
45388;SDS011;31127;52.078;4.370;2023-08-06T02:46:51;3.03;;;2.28;;
45388;SDS011;31127;52.078;4.370;2023-08-06T02:51:48;4.13;;;2.75;;
45388;SDS011;31127;52.078;4.370;2023-08-06T02:56:44;5.80;;;4.30;;
45388;SDS011;31127;52.078;4.370;2023-08-06T03:01:55;9.63;;;6.10;;
45388;SDS011;31127;52.078;4.370;2023-08-06T03:12:00;10.07;;;7.28;;
45388;SDS011;31127;52.078;4.370;2023-08-06T03:16:55;9.25;;;7.70;;
45388;SDS011;31127;52.078;4.370;2023-08-06T03:21:51;13.00;;;9.48;;
45388;SDS011;31127;52.078;4.370;2023-08-06T03:27:08;10.25;;;4.03;;
45388;SDS011;31127;52.078;4.370;2023-08-06T03:32:23;13.75;;;4.03;;
45388;SDS011;31127;52.078;4.370;2023-08-06T03:37:19;12.43;;;3.63;;
45388;SDS011;31127;52.078;4.370;2023-08-06T03:42:15;11.50;;;3.72;;
45388;SDS011;31127;52.078;4.370;2023-08-06T03:47:10;9.13;;;3.08;;
45388;SDS011;31127;52.078;4.370;2023-08-06T03:52:07;9.98;;;3.72;;
45388;SDS011;31127;52.078;4.370;2023-08-06T03:57:05;10.63;;;3.55;;
45388;SDS011;31127;52.078;4.370;2023-08-06T04:02:01;9.63;;;3.83;;
45388;SDS011;31127;52.078;4.370;2023-08-06T04:06:57;7.28;;;3.80;;
45388;SDS011;31127;52.078;4.370;2023-08-06T04:11:53;19.73;;;4.70;;
45388;SDS011;31127;52.078;4.370;2023-08-06T04:16:48;6.72;;;4.18;;
45388;SDS011;31127;52.078;4.370;2023-08-06T04:22:03;8.02;;;3.85;;
45388;SDS011;31127;52.078;4.370;2023-08-06T04:27:02;9.88;;;4.07;;
45388;SDS011;31127;52.078;4.370;2023-08-06T04:31:58;11.27;;;3.90;;
45388;SDS011;31127;52.078;4.370;2023-08-06T04:36:54;7.45;;;4.38;;
45388;SDS011;31127;52.078;4.370;2023-08-06T04:41:50;13.15;;;4.88;;
45388;SDS011;31127;52.078;4.370;2023-08-06T04:46:46;9.65;;;4.65;;
45388;SDS011;31127;52.078;4.370;2023-08-06T04:51:42;8.73;;;4.38;;
45388;SDS011;31127;52.078;4.370;2023-08-06T04:56:37;11.80;;;4.78;;
45388;SDS011;31127;52.078;4.370;2023-08-06T05:01:33;7.35;;;4.40;;
45388;SDS011;31127;52.078;4.370;2023-08-06T05:06:28;9.00;;;4.23;;
45388;SDS011;31127;52.078;4.370;2023-08-06T05:11:24;9.93;;;3.83;;
45388;SDS011;31127;52.078;4.370;2023-08-06T05:16:19;10.27;;;4.45;;
45388;SDS011;31127;52.078;4.370;2023-08-06T05:21:15;9.73;;;4.23;;
45388;SDS011;31127;52.078;4.370;2023-08-06T05:26:11;12.10;;;3.78;;
45388;SDS011;31127;52.078;4.370;2023-08-06T05:31:07;10.07;;;3.17;;
45388;SDS011;31127;52.078;4.370;2023-08-06T05:36:02;6.28;;;2.78;;
45388;SDS011;31127;52.078;4.370;2023-08-06T05:40:58;3.30;;;2.00;;
45388;SDS011;31127;52.078;4.370;2023-08-06T05:45:54;3.25;;;1.70;;
45388;SDS011;31127;52.078;4.370;2023-08-06T05:50:49;6.47;;;1.80;;
45388;SDS011;31127;52.078;4.370;2023-08-06T05:55:45;6.15;;;1.63;;
45388;SDS011;31127;52.078;4.370;2023-08-06T06:00:40;4.50;;;1.60;;
45388;SDS011;31127;52.078;4.370;2023-08-06T06:05:39;6.22;;;1.65;;
45388;SDS011;31127;52.078;4.370;2023-08-06T06:10:34;6.50;;;1.30;;
45388;SDS011;31127;52.078;4.370;2023-08-06T06:15:30;3.28;;;1.27;;
45388;SDS011;31127;52.078;4.370;2023-08-06T06:20:25;2.53;;;1.40;;
45388;SDS011;31127;52.078;4.370;2023-08-06T06:25:21;4.60;;;1.70;;
45388;SDS011;31127;52.078;4.370;2023-08-06T06:30:17;6.15;;;1.60;;
45388;SDS011;31127;52.078;4.370;2023-08-06T06:35:12;6.57;;;2.65;;
45388;SDS011;31127;52.078;4.370;2023-08-06T06:40:08;3.08;;;1.30;;
45388;SDS011;31127;52.078;4.370;2023-08-06T06:45:04;5.88;;;1.88;;
45388;SDS011;31127;52.078;4.370;2023-08-06T06:49:59;6.55;;;2.03;;
45388;SDS011;31127;52.078;4.370;2023-08-06T06:54:55;9.70;;;2.28;;
45388;SDS011;31127;52.078;4.370;2023-08-06T06:59:50;4.53;;;2.38;;
45388;SDS011;31127;52.078;4.370;2023-08-06T07:04:47;6.33;;;2.00;;
45388;SDS011;31127;52.078;4.370;2023-08-06T07:09:43;6.05;;;2.15;;
45388;SDS011;31127;52.078;4.370;2023-08-06T07:14:38;7.90;;;2.25;;
45388;SDS011;31127;52.078;4.370;2023-08-06T07:19:34;5.38;;;2.50;;
45388;SDS011;31127;52.078;4.370;2023-08-06T07:24:30;6.32;;;2.40;;
45388;SDS011;31127;52.078;4.370;2023-08-06T07:29:45;5.80;;;1.80;;
45388;SDS011;31127;52.078;4.370;2023-08-06T07:34:41;5.90;;;1.95;;
45388;SDS011;31127;52.078;4.370;2023-08-06T07:39:37;4.97;;;2.17;;
45388;SDS011;31127;52.078;4.370;2023-08-06T07:44:34;4.90;;;1.73;;
45388;SDS011;31127;52.078;4.370;2023-08-06T07:49:30;5.03;;;2.05;;
45388;SDS011;31127;52.078;4.370;2023-08-06T07:54:25;5.03;;;2.27;;
45388;SDS011;31127;52.078;4.370;2023-08-06T07:59:40;5.28;;;1.75;;
45388;SDS011;31127;52.078;4.370;2023-08-06T08:04:36;2.50;;;1.90;;
45388;SDS011;31127;52.078;4.370;2023-08-06T08:09:32;3.85;;;1.75;;
45388;SDS011;31127;52.078;4.370;2023-08-06T08:14:47;4.15;;;1.75;;
45388;SDS011;31127;52.078;4.370;2023-08-06T08:19:43;4.03;;;2.15;;
45388;SDS011;31127;52.078;4.370;2023-08-06T08:24:38;3.80;;;2.00;;
45388;SDS011;31127;52.078;4.370;2023-08-06T08:29:34;4.03;;;1.70;;
45388;SDS011;31127;52.078;4.370;2023-08-06T08:34:29;4.03;;;1.60;;
45388;SDS011;31127;52.078;4.370;2023-08-06T08:39:25;3.08;;;1.60;;
45388;SDS011;31127;52.078;4.370;2023-08-06T08:44:20;5.65;;;2.28;;
45388;SDS011;31127;52.078;4.370;2023-08-06T08:49:16;3.03;;;1.42;;
45388;SDS011;31127;52.078;4.370;2023-08-06T08:54:12;3.47;;;1.25;;
45388;SDS011;31127;52.078;4.370;2023-08-06T08:59:09;3.38;;;1.70;;
45388;SDS011;31127;52.078;4.370;2023-08-06T09:04:07;3.72;;;1.30;;
45388;SDS011;31127;52.078;4.370;2023-08-06T09:09:15;4.60;;;1.55;;
45388;SDS011;31127;52.078;4.370;2023-08-06T09:14:12;2.58;;;1.38;;
45388;SDS011;31127;52.078;4.370;2023-08-06T09:19:11;3.97;;;1.88;;
45388;SDS011;31127;52.078;4.370;2023-08-06T09:24:08;2.10;;;1.35;;
45388;SDS011;31127;52.078;4.370;2023-08-06T09:29:05;4.72;;;1.60;;
45388;SDS011;31127;52.078;4.370;2023-08-06T09:34:00;4.25;;;1.88;;
45388;SDS011;31127;52.078;4.370;2023-08-06T09:38:56;2.92;;;1.80;;
45388;SDS011;31127;52.078;4.370;2023-08-06T09:43:52;2.53;;;1.37;;
45388;SDS011;31127;52.078;4.370;2023-08-06T09:48:47;2.73;;;1.33;;
45388;SDS011;31127;52.078;4.370;2023-08-06T09:53:43;3.20;;;1.40;;
45388;SDS011;31127;52.078;4.370;2023-08-06T09:58:39;2.38;;;1.20;;
45388;SDS011;31127;52.078;4.370;2023-08-06T10:03:55;2.35;;;1.20;;
45388;SDS011;31127;52.078;4.370;2023-08-06T10:08:52;3.25;;;1.42;;
45388;SDS011;31127;52.078;4.370;2023-08-06T10:13:48;8.60;;;2.77;;
45388;SDS011;31127;52.078;4.370;2023-08-06T10:18:44;5.60;;;1.35;;
45388;SDS011;31127;52.078;4.370;2023-08-06T10:23:43;6.00;;;1.90;;
45388;SDS011;31127;52.078;4.370;2023-08-06T10:28:39;2.43;;;1.30;;
45388;SDS011;31127;52.078;4.370;2023-08-06T10:33:42;5.65;;;1.75;;
45388;SDS011;31127;52.078;4.370;2023-08-06T10:38:45;3.45;;;1.55;;
45388;SDS011;31127;52.078;4.370;2023-08-06T10:44:07;3.10;;;1.85;;
45388;SDS011;31127;52.078;4.370;2023-08-06T10:49:05;7.13;;;1.70;;
45388;SDS011;31127;52.078;4.370;2023-08-06T10:54:02;3.97;;;1.60;;
45388;SDS011;31127;52.078;4.370;2023-08-06T10:59:18;3.63;;;1.10;;
45388;SDS011;31127;52.078;4.370;2023-08-06T11:04:35;1.80;;;1.23;;
45388;SDS011;31127;52.078;4.370;2023-08-06T11:09:31;6.13;;;1.48;;
45388;SDS011;31127;52.078;4.370;2023-08-06T11:14:26;2.63;;;1.27;;
45388;SDS011;31127;52.078;4.370;2023-08-06T11:19:22;2.45;;;1.40;;
45388;SDS011;31127;52.078;4.370;2023-08-06T11:24:18;2.70;;;1.20;;
45388;SDS011;31127;52.078;4.370;2023-08-06T11:29:15;1.75;;;1.30;;
45388;SDS011;31127;52.078;4.370;2023-08-06T11:34:10;2.25;;;1.20;;
45388;SDS011;31127;52.078;4.370;2023-08-06T11:39:07;3.08;;;1.40;;
45388;SDS011;31127;52.078;4.370;2023-08-06T11:44:04;2.00;;;1.00;;
45388;SDS011;31127;52.078;4.370;2023-08-06T11:49:00;2.63;;;0.88;;
45388;SDS011;31127;52.078;4.370;2023-08-06T11:53:55;2.20;;;1.10;;
45388;SDS011;31127;52.078;4.370;2023-08-06T11:58:51;4.93;;;1.52;;
45388;SDS011;31127;52.078;4.370;2023-08-06T12:03:47;1.95;;;0.93;;
45388;SDS011;31127;52.078;4.370;2023-08-06T12:08:43;2.83;;;0.98;;
45388;SDS011;31127;52.078;4.370;2023-08-06T12:13:40;1.60;;;0.88;;
45388;SDS011;31127;52.078;4.370;2023-08-06T12:18:35;2.65;;;0.82;;
45388;SDS011;31127;52.078;4.370;2023-08-06T12:23:31;3.10;;;0.80;;
45388;SDS011;31127;52.078;4.370;2023-08-06T12:28:28;2.15;;;1.08;;
45388;SDS011;31127;52.078;4.370;2023-08-06T12:33:24;2.75;;;1.10;;
45388;SDS011;31127;52.078;4.370;2023-08-06T12:38:22;4.13;;;0.95;;
45388;SDS011;31127;52.078;4.370;2023-08-06T12:43:18;2.20;;;0.80;;
45388;SDS011;31127;52.078;4.370;2023-08-06T12:48:13;2.50;;;0.70;;
45388;SDS011;31127;52.078;4.370;2023-08-06T12:53:09;2.85;;;0.75;;
45388;SDS011;31127;52.078;4.370;2023-08-06T12:58:05;1.80;;;0.93;;
45388;SDS011;31127;52.078;4.370;2023-08-06T13:03:00;1.73;;;1.00;;
45388;SDS011;31127;52.078;4.370;2023-08-06T13:08:16;2.22;;;0.88;;
45388;SDS011;31127;52.078;4.370;2023-08-06T13:13:12;5.35;;;0.85;;
45388;SDS011;31127;52.078;4.370;2023-08-06T13:18:07;8.77;;;2.00;;
45388;SDS011;31127;52.078;4.370;2023-08-06T13:23:03;8.10;;;2.05;;
45388;SDS011;31127;52.078;4.370;2023-08-06T13:28:01;9.73;;;2.15;;
45388;SDS011;31127;52.078;4.370;2023-08-06T13:32:57;8.57;;;1.65;;
45388;SDS011;31127;52.078;4.370;2023-08-06T13:37:53;8.77;;;2.10;;
45388;SDS011;31127;52.078;4.370;2023-08-06T13:42:49;12.30;;;2.67;;
45388;SDS011;31127;52.078;4.370;2023-08-06T13:47:47;10.13;;;2.17;;
45388;SDS011;31127;52.078;4.370;2023-08-06T13:53:03;7.35;;;1.75;;
45388;SDS011;31127;52.078;4.370;2023-08-06T13:57:58;10.07;;;1.92;;
45388;SDS011;31127;52.078;4.370;2023-08-06T14:03:14;8.98;;;1.70;;
45388;SDS011;31127;52.078;4.370;2023-08-06T14:08:09;9.43;;;1.92;;
45388;SDS011;31127;52.078;4.370;2023-08-06T14:13:05;10.10;;;1.17;;
45388;SDS011;31127;52.078;4.370;2023-08-06T14:18:02;12.98;;;1.65;;
45388;SDS011;31127;52.078;4.370;2023-08-06T14:22:58;12.73;;;1.85;;
45388;SDS011;31127;52.078;4.370;2023-08-06T14:27:54;9.38;;;1.63;;
45388;SDS011;31127;52.078;4.370;2023-08-06T14:33:09;6.05;;;1.77;;
45388;SDS011;31127;52.078;4.370;2023-08-06T14:38:25;12.10;;;2.20;;
45388;SDS011;31127;52.078;4.370;2023-08-06T14:43:20;10.85;;;1.52;;
45388;SDS011;31127;52.078;4.370;2023-08-06T14:48:16;12.25;;;1.75;;
45388;SDS011;31127;52.078;4.370;2023-08-06T14:53:11;11.00;;;3.20;;
45388;SDS011;31127;52.078;4.370;2023-08-06T14:58:08;10.30;;;2.63;;
45388;SDS011;31127;52.078;4.370;2023-08-06T15:03:03;9.90;;;1.98;;
45388;SDS011;31127;52.078;4.370;2023-08-06T15:08:19;14.88;;;3.20;;
45388;SDS011;31127;52.078;4.370;2023-08-06T15:13:37;19.15;;;2.65;;
45388;SDS011;31127;52.078;4.370;2023-08-06T15:18:33;14.43;;;2.45;;
45388;SDS011;31127;52.078;4.370;2023-08-06T15:23:28;14.45;;;2.72;;
45388;SDS011;31127;52.078;4.370;2023-08-06T15:28:24;15.68;;;3.13;;
45388;SDS011;31127;52.078;4.370;2023-08-06T15:33:19;17.35;;;2.75;;
45388;SDS011;31127;52.078;4.370;2023-08-06T15:38:35;10.18;;;2.70;;
45388;SDS011;31127;52.078;4.370;2023-08-06T15:43:31;12.07;;;2.70;;
45388;SDS011;31127;52.078;4.370;2023-08-06T15:48:46;17.33;;;2.85;;
45388;SDS011;31127;52.078;4.370;2023-08-06T15:53:41;8.37;;;2.70;;
45388;SDS011;31127;52.078;4.370;2023-08-06T15:58:37;15.95;;;3.40;;
45388;SDS011;31127;52.078;4.370;2023-08-06T16:03:52;12.00;;;2.60;;
45388;SDS011;31127;52.078;4.370;2023-08-06T16:08:48;15.48;;;2.20;;
45388;SDS011;31127;52.078;4.370;2023-08-06T16:14:03;11.63;;;1.70;;
45388;SDS011;31127;52.078;4.370;2023-08-06T16:19:00;11.60;;;2.03;;
45388;SDS011;31127;52.078;4.370;2023-08-06T16:23:56;8.05;;;2.40;;
45388;SDS011;31127;52.078;4.370;2023-08-06T16:29:11;9.20;;;2.38;;
45388;SDS011;31127;52.078;4.370;2023-08-06T16:34:30;14.80;;;2.92;;
45388;SDS011;31127;52.078;4.370;2023-08-06T16:39:27;10.88;;;2.17;;
45388;SDS011;31127;52.078;4.370;2023-08-06T16:44:24;11.45;;;2.33;;
45388;SDS011;31127;52.078;4.370;2023-08-06T16:49:20;19.75;;;3.15;;
45388;SDS011;31127;52.078;4.370;2023-08-06T16:54:16;12.20;;;2.58;;
45388;SDS011;31127;52.078;4.370;2023-08-06T16:59:11;13.27;;;1.98;;
45388;SDS011;31127;52.078;4.370;2023-08-06T17:04:07;9.98;;;2.20;;
45388;SDS011;31127;52.078;4.370;2023-08-06T17:09:03;15.43;;;2.28;;
45388;SDS011;31127;52.078;4.370;2023-08-06T17:13:58;12.50;;;2.83;;
45388;SDS011;31127;52.078;4.370;2023-08-06T17:18:54;16.00;;;2.47;;
45388;SDS011;31127;52.078;4.370;2023-08-06T17:23:50;13.63;;;2.20;;
45388;SDS011;31127;52.078;4.370;2023-08-06T17:28:45;10.80;;;3.08;;
45388;SDS011;31127;52.078;4.370;2023-08-06T17:33:40;12.23;;;2.53;;
45388;SDS011;31127;52.078;4.370;2023-08-06T17:38:36;11.00;;;2.20;;
45388;SDS011;31127;52.078;4.370;2023-08-06T17:43:31;12.73;;;2.30;;
45388;SDS011;31127;52.078;4.370;2023-08-06T17:48:47;14.00;;;2.20;;
45388;SDS011;31127;52.078;4.370;2023-08-06T17:53:42;10.27;;;2.08;;
45388;SDS011;31127;52.078;4.370;2023-08-06T17:58:47;11.02;;;1.60;;
45388;SDS011;31127;52.078;4.370;2023-08-06T18:04:03;13.35;;;1.90;;
45388;SDS011;31127;52.078;4.370;2023-08-06T18:09:18;14.98;;;3.78;;
45388;SDS011;31127;52.078;4.370;2023-08-06T18:14:34;14.25;;;2.42;;
45388;SDS011;31127;52.078;4.370;2023-08-06T18:19:30;15.00;;;2.60;;
45388;SDS011;31127;52.078;4.370;2023-08-06T18:24:26;11.25;;;2.92;;
45388;SDS011;31127;52.078;4.370;2023-08-06T18:29:21;13.80;;;3.05;;
45388;SDS011;31127;52.078;4.370;2023-08-06T18:34:17;19.98;;;3.55;;
45388;SDS011;31127;52.078;4.370;2023-08-06T18:39:13;13.45;;;2.15;;
45388;SDS011;31127;52.078;4.370;2023-08-06T18:44:08;15.85;;;2.97;;
45388;SDS011;31127;52.078;4.370;2023-08-06T18:49:03;13.25;;;3.38;;
45388;SDS011;31127;52.078;4.370;2023-08-06T18:54:19;19.73;;;4.68;;
45388;SDS011;31127;52.078;4.370;2023-08-06T18:59:36;39.53;;;14.05;;
45388;SDS011;31127;52.078;4.370;2023-08-06T19:04:31;14.27;;;3.75;;
45388;SDS011;31127;52.078;4.370;2023-08-06T19:09:47;15.82;;;3.22;;
45388;SDS011;31127;52.078;4.370;2023-08-06T19:14:43;18.45;;;3.47;;
45388;SDS011;31127;52.078;4.370;2023-08-06T19:19:39;15.30;;;3.75;;
45388;SDS011;31127;52.078;4.370;2023-08-06T19:24:54;20.58;;;3.33;;
45388;SDS011;31127;52.078;4.370;2023-08-06T19:29:50;12.85;;;2.72;;
45388;SDS011;31127;52.078;4.370;2023-08-06T19:34:46;20.48;;;3.55;;
45388;SDS011;31127;52.078;4.370;2023-08-06T19:39:42;11.13;;;2.38;;
45388;SDS011;31127;52.078;4.370;2023-08-06T19:44:38;13.70;;;3.17;;
45388;SDS011;31127;52.078;4.370;2023-08-06T19:49:34;16.05;;;2.92;;
45388;SDS011;31127;52.078;4.370;2023-08-06T19:54:49;18.95;;;3.58;;
45388;SDS011;31127;52.078;4.370;2023-08-06T20:00:05;12.50;;;2.78;;
45388;SDS011;31127;52.078;4.370;2023-08-06T20:05:07;11.95;;;3.30;;
45388;SDS011;31127;52.078;4.370;2023-08-06T20:10:23;10.80;;;2.55;;
45388;SDS011;31127;52.078;4.370;2023-08-06T20:15:19;13.50;;;2.83;;
45388;SDS011;31127;52.078;4.370;2023-08-06T20:20:16;15.98;;;2.60;;
45388;SDS011;31127;52.078;4.370;2023-08-06T20:25:12;24.63;;;4.70;;
45388;SDS011;31127;52.078;4.370;2023-08-06T20:30:08;15.97;;;3.13;;
45388;SDS011;31127;52.078;4.370;2023-08-06T20:35:04;12.38;;;4.05;;
45388;SDS011;31127;52.078;4.370;2023-08-06T20:39:59;15.82;;;2.40;;
45388;SDS011;31127;52.078;4.370;2023-08-06T20:44:55;16.67;;;3.88;;
45388;SDS011;31127;52.078;4.370;2023-08-06T20:50:05;14.02;;;2.35;;
45388;SDS011;31127;52.078;4.370;2023-08-06T20:55:01;19.55;;;2.97;;
45388;SDS011;31127;52.078;4.370;2023-08-06T20:59:57;19.25;;;3.53;;
45388;SDS011;31127;52.078;4.370;2023-08-06T21:04:52;11.68;;;2.28;;
45388;SDS011;31127;52.078;4.370;2023-08-06T21:10:08;9.05;;;2.55;;
45388;SDS011;31127;52.078;4.370;2023-08-06T21:15:04;12.52;;;2.72;;
45388;SDS011;31127;52.078;4.370;2023-08-06T21:20:00;16.70;;;2.72;;
45388;SDS011;31127;52.078;4.370;2023-08-06T21:24:55;14.38;;;2.60;;
45388;SDS011;31127;52.078;4.370;2023-08-06T21:29:53;12.20;;;2.20;;
45388;SDS011;31127;52.078;4.370;2023-08-06T21:34:49;16.00;;;2.55;;
45388;SDS011;31127;52.078;4.370;2023-08-06T21:39:45;14.55;;;2.33;;
45388;SDS011;31127;52.078;4.370;2023-08-06T21:44:41;20.13;;;3.90;;
45388;SDS011;31127;52.078;4.370;2023-08-06T21:49:36;18.98;;;3.35;;
45388;SDS011;31127;52.078;4.370;2023-08-06T21:54:32;25.63;;;2.97;;
45388;SDS011;31127;52.078;4.370;2023-08-06T21:59:27;16.80;;;3.13;;
45388;SDS011;31127;52.078;4.370;2023-08-06T22:04:23;15.90;;;2.78;;
45388;SDS011;31127;52.078;4.370;2023-08-06T22:09:18;15.15;;;3.88;;
45388;SDS011;31127;52.078;4.370;2023-08-06T22:14:14;14.57;;;3.63;;
45388;SDS011;31127;52.078;4.370;2023-08-06T22:19:10;21.48;;;3.72;;
45388;SDS011;31127;52.078;4.370;2023-08-06T22:24:06;16.85;;;3.42;;
45388;SDS011;31127;52.078;4.370;2023-08-06T22:29:21;14.18;;;3.67;;
45388;SDS011;31127;52.078;4.370;2023-08-06T22:34:17;13.40;;;2.97;;
45388;SDS011;31127;52.078;4.370;2023-08-06T22:39:12;8.95;;;2.63;;
45388;SDS011;31127;52.078;4.370;2023-08-06T22:44:08;17.42;;;3.50;;
45388;SDS011;31127;52.078;4.370;2023-08-06T22:49:03;19.35;;;4.13;;
45388;SDS011;31127;52.078;4.370;2023-08-06T22:54:19;12.40;;;2.85;;
45388;SDS011;31127;52.078;4.370;2023-08-06T22:59:14;17.02;;;3.17;;
45388;SDS011;31127;52.078;4.370;2023-08-06T23:04:10;14.97;;;2.60;;
45388;SDS011;31127;52.078;4.370;2023-08-06T23:09:05;12.35;;;2.80;;
45388;SDS011;31127;52.078;4.370;2023-08-06T23:14:01;18.10;;;3.97;;
45388;SDS011;31127;52.078;4.370;2023-08-06T23:18:57;15.13;;;3.97;;
45388;SDS011;31127;52.078;4.370;2023-08-06T23:23:52;12.93;;;2.72;;
45388;SDS011;31127;52.078;4.370;2023-08-06T23:28:48;13.25;;;3.33;;
45388;SDS011;31127;52.078;4.370;2023-08-06T23:33:45;18.40;;;3.60;;
45388;SDS011;31127;52.078;4.370;2023-08-06T23:38:41;13.93;;;2.22;;
45388;SDS011;31127;52.078;4.370;2023-08-06T23:43:37;13.55;;;2.83;;
45388;SDS011;31127;52.078;4.370;2023-08-06T23:48:33;13.30;;;3.17;;
45388;SDS011;31127;52.078;4.370;2023-08-06T23:53:28;17.15;;;2.97;;
45388;SDS011;31127;52.078;4.370;2023-08-06T23:58:24;12.32;;;2.30;;
